createdAt,value
2022-10-05T00:00:57.806Z,7.70
2022-10-05T00:03:26.326Z,9.23
2022-10-05T00:05:54.695Z,6.70
2022-10-05T00:08:25.184Z,8.50
2022-10-05T00:10:53.567Z,7.97
2022-10-05T00:13:25.352Z,9.57
2022-10-05T00:15:58.078Z,7.43
2022-10-05T00:18:27.655Z,8.10
2022-10-05T00:20:55.899Z,9.07
2022-10-05T00:23:26.929Z,8.13
2022-10-05T00:25:54.876Z,7.70
2022-10-05T00:28:31.063Z,7.47
2022-10-05T00:31:00.348Z,7.63
2022-10-05T00:33:28.703Z,7.93
2022-10-05T00:35:56.931Z,7.63
2022-10-05T00:38:24.792Z,8.60
2022-10-05T00:41:05.220Z,8.93
2022-10-05T00:43:59.011Z,9.30
2022-10-05T00:46:31.860Z,7.43
2022-10-05T00:49:07.219Z,8.33
2022-10-05T00:51:38.253Z,7.47
2022-10-05T00:54:22.207Z,9.10
2022-10-05T00:57:07.129Z,8.07
2022-10-05T00:59:49.318Z,7.63
2022-10-05T01:02:25.628Z,9.37
2022-10-05T01:04:57.753Z,7.83
2022-10-05T01:07:36.665Z,7.17
2022-10-05T01:10:16.816Z,8.77
2022-10-05T01:12:52.504Z,9.73
2022-10-05T01:15:28.984Z,7.87
2022-10-05T01:18:06.582Z,8.07
2022-10-05T01:20:43.381Z,8.13
2022-10-05T01:23:41.349Z,8.50
2022-10-05T01:26:25.406Z,9.93
2022-10-05T01:29:01.664Z,8.57
2022-10-05T01:31:37.348Z,8.67
2022-10-05T01:34:14.029Z,11.73
2022-10-05T01:36:49.885Z,7.73
2022-10-05T01:39:25.235Z,8.87
2022-10-05T01:42:02.034Z,10.37
2022-10-05T01:44:38.612Z,8.10
2022-10-05T01:47:10.992Z,8.30
2022-10-05T01:49:45.567Z,7.27
2022-10-05T01:52:24.335Z,7.70
2022-10-05T01:55:04.078Z,9.27
2022-10-05T01:57:47.454Z,7.90
2022-10-05T02:00:19.167Z,7.77
2022-10-05T02:02:49.931Z,7.63
2022-10-05T02:05:22.065Z,9.00
2022-10-05T02:07:54.994Z,7.13
2022-10-05T02:10:26.901Z,8.27
2022-10-05T02:12:59.756Z,7.80
2022-10-05T02:15:34.916Z,6.97
2022-10-05T02:18:08.739Z,7.33
2022-10-05T02:20:39.107Z,9.20
2022-10-05T02:23:11.817Z,8.23
2022-10-05T02:25:43.740Z,9.30
2022-10-05T02:28:16.398Z,7.40
2022-10-05T02:30:49.836Z,8.63
2022-10-05T02:33:25.613Z,8.20
2022-10-05T02:35:54.516Z,7.87
2022-10-05T02:38:32.410Z,7.87
2022-10-05T02:41:09.211Z,8.83
2022-10-05T02:43:45.427Z,8.97
2022-10-05T02:46:25.043Z,8.97
2022-10-05T02:49:03.899Z,10.27
2022-10-05T02:51:39.486Z,8.43
2022-10-05T02:54:16.117Z,8.43
2022-10-05T02:56:55.125Z,10.03
2022-10-05T02:59:27.951Z,7.47
2022-10-05T03:02:05.321Z,9.07
2022-10-05T03:04:42.441Z,8.20
2022-10-05T03:07:17.362Z,8.30
2022-10-05T03:09:54.318Z,8.07
2022-10-05T03:12:35.853Z,7.20
2022-10-05T03:15:16.992Z,9.57
2022-10-05T03:17:55.825Z,8.63
2022-10-05T03:20:38.108Z,8.97
2022-10-05T03:23:09.910Z,10.23
2022-10-05T03:25:51.623Z,10.77
2022-10-05T03:28:26.347Z,7.63
2022-10-05T03:31:01.170Z,8.60
2022-10-05T03:33:39.422Z,8.53
2022-10-05T03:36:17.714Z,8.03
2022-10-05T03:38:51.924Z,10.10
2022-10-05T03:41:27.220Z,10.10
2022-10-05T03:44:20.319Z,9.40
2022-10-05T03:47:04.215Z,10.93
2022-10-05T03:49:44.420Z,8.70
2022-10-05T03:52:17.635Z,9.10
2022-10-05T03:54:50.124Z,9.70
2022-10-05T03:57:21.469Z,8.03
2022-10-05T03:59:57.279Z,11.20
2022-10-05T04:02:30.286Z,11.20
2022-10-05T04:05:04.167Z,9.67
2022-10-05T04:07:40.517Z,10.20
2022-10-05T04:10:15.526Z,9.40
2022-10-05T04:12:47.187Z,12.73
2022-10-05T04:15:20.222Z,8.93
2022-10-05T04:17:51.521Z,10.20
2022-10-05T04:20:25.833Z,8.53
2022-10-05T04:23:00.471Z,10.30
2022-10-05T04:25:33.177Z,9.77
2022-10-05T04:28:05.928Z,8.57
2022-10-05T04:30:39.043Z,9.47
2022-10-05T04:33:11.251Z,10.23
2022-10-05T04:35:55.111Z,9.93
2022-10-05T04:38:51.996Z,9.03
2022-10-05T04:41:34.084Z,8.30
2022-10-05T04:44:14.299Z,8.10
2022-10-05T04:47:00.321Z,8.47
2022-10-05T04:49:45.612Z,8.77
2022-10-05T04:52:24.279Z,7.67
2022-10-05T04:55:03.368Z,7.10
2022-10-05T04:57:41.432Z,9.43
2022-10-05T05:00:24.127Z,7.50
2022-10-05T05:03:10.821Z,9.47
2022-10-05T05:06:15.256Z,7.87
2022-10-05T05:09:05.185Z,8.50
2022-10-05T05:11:42.177Z,7.60
2022-10-05T05:14:40.090Z,10.93
2022-10-05T05:17:20.951Z,7.07
2022-10-05T05:19:58.890Z,7.53
2022-10-05T05:22:36.736Z,6.83
2022-10-05T05:25:25.875Z,7.73
2022-10-05T05:27:58.774Z,6.33
2022-10-05T05:30:36.056Z,7.23
2022-10-05T05:33:21.248Z,5.83
2022-10-05T05:36:23.769Z,5.77
2022-10-05T05:39:17.269Z,8.13
2022-10-05T05:41:58.967Z,6.67
2022-10-05T05:44:29.226Z,7.87
2022-10-05T05:47:05.182Z,6.67
2022-10-05T05:49:50.699Z,5.63
2022-10-05T05:52:23.172Z,5.40
2022-10-05T05:54:56.002Z,6.17
2022-10-05T05:57:31.458Z,5.30
2022-10-05T06:00:07.548Z,4.97
2022-10-05T06:02:47.164Z,8.50
2022-10-05T06:05:28.185Z,6.07
2022-10-05T06:07:59.498Z,5.80
2022-10-05T06:10:33.995Z,6.17
2022-10-05T06:13:15.069Z,5.27
2022-10-05T06:15:49.820Z,4.93
2022-10-05T06:18:21.903Z,5.33
2022-10-05T06:20:54.232Z,6.07
2022-10-05T06:23:29.223Z,5.53
2022-10-05T06:26:13.888Z,5.57
2022-10-05T06:28:51.015Z,4.50
2022-10-05T06:31:46.518Z,4.53
2022-10-05T06:34:29.656Z,4.10
2022-10-05T06:37:01.552Z,5.87
2022-10-05T06:39:46.336Z,4.97
2022-10-05T06:42:35.647Z,5.97
2022-10-05T06:45:25.520Z,5.27
2022-10-05T06:48:48.235Z,4.07
2022-10-05T06:51:35.645Z,4.23
2022-10-05T06:54:42.555Z,6.30
2022-10-05T06:57:20.835Z,4.40
2022-10-05T06:59:56.269Z,4.10
2022-10-05T07:02:36.241Z,5.87
2022-10-05T07:05:33.546Z,4.70
2022-10-05T07:08:05.067Z,4.20
2022-10-05T07:10:39.143Z,5.03
2022-10-05T07:13:22.482Z,4.10
2022-10-05T07:15:58.984Z,5.20
2022-10-05T07:18:40.671Z,3.90
2022-10-05T07:21:19.608Z,5.87
2022-10-05T07:23:59.203Z,3.60
2022-10-05T07:26:33.955Z,4.13
2022-10-05T07:29:22.404Z,4.63
2022-10-05T07:31:59.616Z,3.73
2022-10-05T07:34:40.883Z,4.33
2022-10-05T07:37:30.013Z,5.03
2022-10-05T07:40:06.093Z,3.33
2022-10-05T07:42:51.743Z,3.87
2022-10-05T07:45:29.956Z,4.17
2022-10-05T07:48:06.778Z,3.73
2022-10-05T07:50:42.220Z,3.90
2022-10-05T07:53:17.139Z,3.03
2022-10-05T07:55:49.285Z,4.93
2022-10-05T07:58:24.363Z,4.50
2022-10-05T08:01:03.549Z,3.33
2022-10-05T08:03:43.932Z,3.97
2022-10-05T08:06:18.348Z,4.00
2022-10-05T08:08:52.269Z,5.37
2022-10-05T08:11:27.827Z,4.90
2022-10-05T08:14:01.783Z,4.43
2022-10-05T08:16:34.199Z,4.30
2022-10-05T08:19:07.239Z,4.10
2022-10-05T08:21:41.008Z,4.23
2022-10-05T08:24:16.264Z,3.80
2022-10-05T08:26:52.876Z,5.90
2022-10-05T08:29:28.112Z,4.87
2022-10-05T08:32:01.892Z,4.83
2022-10-05T08:34:38.907Z,3.20
2022-10-05T08:37:13.226Z,2.90
2022-10-05T08:39:42.717Z,3.63
2022-10-05T08:42:44.481Z,4.43
2022-10-05T08:45:35.343Z,3.87
2022-10-05T08:48:23.997Z,5.03
2022-10-05T08:51:18.784Z,3.63
2022-10-05T08:54:17.667Z,4.10
2022-10-05T08:56:52.940Z,5.63
2022-10-05T09:00:02.491Z,4.53
2022-10-05T09:02:47.079Z,3.93
2022-10-05T09:05:39.309Z,7.60
2022-10-05T09:08:29.747Z,3.13
2022-10-05T09:11:11.871Z,2.83
2022-10-05T09:14:17.056Z,3.13
2022-10-05T09:16:53.733Z,3.87
2022-10-05T09:19:51.317Z,5.30
2022-10-05T09:22:34.954Z,3.47
2022-10-05T09:25:15.575Z,3.87
2022-10-05T09:27:52.966Z,2.83
2022-10-05T09:30:35.183Z,3.57
2022-10-05T09:33:43.955Z,3.40
2022-10-05T09:37:07.983Z,2.90
2022-10-05T09:40:16.821Z,3.57
2022-10-05T09:43:17.895Z,8.40
2022-10-05T09:46:12.005Z,3.00
2022-10-05T09:49:10.867Z,3.83
2022-10-05T09:52:05.810Z,4.17
2022-10-05T09:55:14.042Z,3.17
2022-10-05T09:58:20.268Z,4.03
2022-10-05T10:01:29.030Z,3.27
2022-10-05T10:04:12.930Z,4.60
2022-10-05T10:07:10.143Z,2.43
2022-10-05T10:09:46.701Z,3.87
2022-10-05T10:12:36.801Z,4.23
2022-10-05T10:15:41.472Z,4.93
2022-10-05T10:18:28.695Z,2.70
2022-10-05T10:21:08.363Z,2.90
2022-10-05T10:24:02.148Z,4.60
2022-10-05T10:27:02.668Z,2.50
2022-10-05T10:29:55.952Z,3.83
2022-10-05T10:33:01.056Z,2.87
2022-10-05T10:35:35.051Z,5.97
2022-10-05T10:38:26.468Z,3.13
2022-10-05T10:41:17.257Z,4.23
2022-10-05T10:44:16.193Z,3.67
2022-10-05T10:46:54.619Z,2.77
2022-10-05T10:49:37.584Z,7.97
2022-10-05T10:52:25.201Z,2.30
2022-10-05T10:55:26.524Z,3.30
2022-10-05T10:58:33.256Z,3.43
2022-10-05T11:01:19.529Z,3.67
2022-10-05T11:04:24.279Z,4.27
2022-10-05T11:07:20.957Z,2.77
2022-10-05T11:10:04.900Z,3.50
2022-10-05T11:13:17.460Z,3.93
2022-10-05T11:16:19.446Z,3.03
2022-10-05T11:19:24.856Z,3.77
2022-10-05T11:22:14.547Z,3.47
2022-10-05T11:24:54.636Z,3.33
2022-10-05T11:27:44.821Z,3.77
2022-10-05T11:30:30.955Z,4.93
2022-10-05T11:33:37.619Z,4.47
2022-10-05T11:36:42.751Z,3.80
2022-10-05T11:39:38.630Z,3.63
2022-10-05T11:42:56.251Z,3.70
2022-10-05T11:45:27.114Z,3.50
2022-10-05T11:48:26.309Z,3.80
2022-10-05T11:51:21.321Z,3.53
2022-10-05T11:53:59.696Z,4.90
2022-10-05T11:56:34.949Z,4.93
2022-10-05T11:59:12.833Z,3.87
2022-10-05T12:01:46.608Z,5.83
2022-10-05T12:04:20.878Z,2.63
2022-10-05T12:07:04.442Z,1.80
2022-10-05T12:10:18.099Z,3.03
2022-10-05T12:13:00.344Z,4.40
2022-10-05T12:15:37.504Z,2.57
2022-10-05T12:18:13.532Z,4.07
2022-10-05T12:20:47.735Z,3.83
2022-10-05T12:23:22.867Z,2.17
2022-10-05T12:25:59.263Z,2.60
2022-10-05T12:28:34.234Z,2.23
2022-10-05T12:31:18.110Z,2.77
2022-10-05T12:33:55.290Z,3.53
2022-10-05T12:36:46.186Z,1.80
2022-10-05T12:39:24.416Z,2.83
2022-10-05T12:42:00.613Z,3.27
2022-10-05T12:44:49.675Z,2.63
2022-10-05T12:47:28.155Z,2.10
2022-10-05T12:50:16.243Z,4.27
2022-10-05T12:52:57.259Z,1.93
2022-10-05T12:55:28.392Z,5.17
2022-10-05T12:58:06.187Z,3.17
2022-10-05T13:00:37.491Z,1.97
2022-10-05T13:03:17.200Z,7.37
2022-10-05T13:05:53.451Z,4.10
2022-10-05T13:08:29.363Z,2.60
2022-10-05T13:11:03.034Z,3.07
2022-10-05T13:13:56.466Z,2.90
2022-10-05T13:16:31.823Z,4.60
2022-10-05T13:19:15.503Z,3.07
2022-10-05T13:22:04.114Z,2.60
2022-10-05T13:24:37.383Z,3.93
2022-10-05T13:27:14.728Z,3.77
2022-10-05T13:29:52.288Z,5.60
2022-10-05T13:32:25.995Z,2.10
2022-10-05T13:35:03.667Z,3.63
2022-10-05T13:37:43.217Z,3.27
2022-10-05T13:40:23.029Z,3.23
2022-10-05T13:43:00.244Z,4.23
2022-10-05T13:45:32.326Z,4.10
2022-10-05T13:48:10.626Z,2.37
2022-10-05T13:50:49.164Z,4.33
2022-10-05T13:53:25.705Z,1.77
2022-10-05T13:56:00.404Z,3.67
2022-10-05T13:58:36.034Z,4.43
2022-10-05T14:01:09.349Z,4.63
2022-10-05T14:03:38.803Z,2.77
2022-10-05T14:06:15.530Z,5.53
2022-10-05T14:08:53.591Z,3.83
2022-10-05T14:11:27.496Z,2.60
2022-10-05T14:14:05.253Z,3.63
2022-10-05T14:16:35.406Z,4.77
2022-10-05T14:19:20.028Z,3.20
2022-10-05T14:21:55.148Z,4.20
2022-10-05T14:24:45.733Z,2.60
2022-10-05T14:27:22.738Z,2.77
2022-10-05T14:29:57.666Z,3.23
2022-10-05T14:32:27.004Z,2.53
2022-10-05T14:35:12.765Z,3.03
2022-10-05T14:37:57.055Z,6.57
2022-10-05T14:40:33.894Z,3.00
2022-10-05T14:43:17.764Z,1.93
2022-10-05T14:45:57.763Z,3.50
2022-10-05T14:48:28.222Z,6.37
2022-10-05T14:50:59.339Z,5.23
2022-10-05T14:53:39.099Z,8.40
2022-10-05T14:56:37.499Z,2.87
2022-10-05T14:59:25.454Z,3.87
2022-10-05T15:01:57.735Z,6.83
2022-10-05T15:04:37.314Z,4.40
2022-10-05T15:07:24.047Z,2.00
2022-10-05T15:10:17.683Z,4.33
2022-10-05T15:12:48.392Z,5.00
2022-10-05T15:15:26.999Z,9.37
2022-10-05T15:18:21.626Z,6.40
2022-10-05T15:20:58.248Z,4.87
2022-10-05T15:23:32.026Z,2.63
2022-10-05T15:26:17.198Z,4.10
2022-10-05T15:28:54.316Z,1.83
2022-10-05T15:31:31.003Z,3.93
2022-10-05T15:34:04.164Z,2.47
2022-10-05T15:36:37.895Z,3.33
2022-10-05T15:39:17.175Z,2.03
2022-10-05T15:42:00.147Z,2.03
2022-10-05T15:44:52.080Z,1.93
2022-10-05T15:47:24.100Z,3.47
2022-10-05T15:50:02.949Z,2.97
2022-10-05T15:52:38.824Z,3.63
2022-10-05T15:55:22.075Z,4.13
2022-10-05T15:58:00.296Z,3.80
2022-10-05T16:00:30.124Z,2.63
2022-10-05T16:03:09.502Z,3.70
2022-10-05T16:06:02.607Z,3.13
2022-10-05T16:08:56.960Z,2.87
2022-10-05T16:11:38.259Z,3.00
2022-10-05T16:14:20.448Z,2.67
2022-10-05T16:17:00.713Z,3.13
2022-10-05T16:19:37.991Z,3.43
2022-10-05T16:22:16.080Z,5.30
2022-10-05T16:24:56.250Z,3.83
2022-10-05T16:27:34.319Z,3.63
2022-10-05T16:30:08.530Z,4.37
2022-10-05T16:32:40.109Z,4.37
2022-10-05T16:35:17.958Z,2.57
2022-10-05T16:37:56.119Z,2.43
2022-10-05T16:40:30.049Z,4.40
2022-10-05T16:43:07.971Z,3.97
2022-10-05T16:45:56.306Z,6.50
2022-10-05T16:48:27.131Z,7.07
2022-10-05T16:51:16.083Z,3.57
2022-10-05T16:53:47.323Z,5.13
2022-10-05T16:56:18.763Z,3.10
2022-10-05T16:58:59.318Z,4.90
2022-10-05T17:01:42.191Z,2.13
2022-10-05T17:04:25.941Z,4.70
2022-10-05T17:07:16.710Z,1.70
2022-10-05T17:10:08.625Z,2.20
2022-10-05T17:12:48.483Z,3.47
2022-10-05T17:15:32.327Z,4.03
2022-10-05T17:18:16.567Z,4.20
2022-10-05T17:20:51.324Z,3.43
2022-10-05T17:23:35.951Z,3.20
2022-10-05T17:26:33.029Z,4.27
2022-10-05T17:29:13.654Z,1.83
2022-10-05T17:32:03.424Z,3.10
2022-10-05T17:34:34.743Z,2.27
2022-10-05T17:37:18.446Z,4.47
2022-10-05T17:39:50.205Z,3.30
2022-10-05T17:42:47.099Z,2.33
2022-10-05T17:45:50.646Z,3.80
2022-10-05T17:48:37.530Z,6.47
2022-10-05T17:51:37.823Z,3.17
2022-10-05T17:54:38.947Z,3.67
2022-10-05T17:57:23.138Z,3.43
2022-10-05T18:00:02.023Z,8.23
2022-10-05T18:02:42.804Z,4.73
2022-10-05T18:05:27.584Z,4.10
2022-10-05T18:08:37.234Z,2.40
2022-10-05T18:11:16.955Z,3.10
2022-10-05T18:13:49.945Z,2.67
2022-10-05T18:16:53.589Z,2.37
2022-10-05T18:19:23.544Z,4.40
2022-10-05T18:22:03.275Z,2.63
2022-10-05T18:25:03.888Z,3.83
2022-10-05T18:28:12.260Z,3.37
2022-10-05T18:30:58.836Z,3.43
2022-10-05T18:33:54.436Z,2.93
2022-10-05T18:36:38.042Z,2.63
2022-10-05T18:39:18.292Z,5.63
2022-10-05T18:41:58.707Z,2.77
2022-10-05T18:44:39.360Z,2.70
2022-10-05T18:47:15.635Z,5.60
2022-10-05T18:50:03.699Z,3.93
2022-10-05T18:52:43.701Z,4.33
2022-10-05T18:55:19.894Z,4.20
2022-10-05T18:58:12.042Z,5.30
2022-10-05T19:01:06.811Z,4.77
2022-10-05T19:03:48.985Z,3.77
2022-10-05T19:06:25.671Z,5.20
2022-10-05T19:09:07.968Z,3.80
2022-10-05T19:11:42.994Z,3.87
2022-10-05T19:14:24.723Z,4.03
2022-10-05T19:17:04.607Z,3.23
2022-10-05T19:20:09.757Z,4.70
2022-10-05T19:22:57.521Z,3.90
2022-10-05T19:25:37.571Z,4.67
2022-10-05T19:28:17.296Z,4.67
2022-10-05T19:30:59.790Z,4.97
2022-10-05T19:33:44.998Z,4.17
2022-10-05T19:36:27.286Z,6.53
2022-10-05T19:39:04.324Z,3.07
2022-10-05T19:41:45.533Z,5.70
2022-10-05T19:44:21.812Z,4.77
2022-10-05T19:47:05.695Z,2.87
2022-10-05T19:49:42.227Z,3.77
2022-10-05T19:52:14.015Z,5.63
2022-10-05T19:54:43.348Z,5.03
2022-10-05T19:57:17.861Z,3.97
2022-10-05T19:59:49.220Z,6.30
2022-10-05T20:02:18.850Z,3.67
2022-10-05T20:04:49.323Z,5.93
2022-10-05T20:07:21.629Z,4.17
2022-10-05T20:09:52.775Z,2.93
2022-10-05T20:12:22.815Z,2.77
2022-10-05T20:15:24.837Z,4.70
2022-10-05T20:18:12.047Z,3.00
2022-10-05T20:20:45.715Z,7.70
2022-10-05T20:23:20.913Z,4.07
2022-10-05T20:26:09.650Z,2.77
2022-10-05T20:28:38.371Z,3.83
2022-10-05T20:31:07.732Z,4.07
2022-10-05T20:33:36.984Z,3.37
2022-10-05T20:36:05.617Z,2.80
2022-10-05T20:38:40.612Z,2.30
2022-10-05T20:41:09.051Z,5.70
2022-10-05T20:43:38.928Z,2.30
2022-10-05T20:46:07.462Z,4.00
2022-10-05T20:48:36.961Z,6.70
2022-10-05T20:51:05.027Z,5.57
2022-10-05T20:53:33.502Z,3.63
2022-10-05T20:56:04.339Z,4.97
2022-10-05T20:58:32.226Z,3.20
2022-10-05T21:01:19.887Z,5.13
2022-10-05T21:03:50.443Z,5.63
2022-10-05T21:06:18.846Z,2.70
2022-10-05T21:08:47.093Z,3.23
2022-10-05T21:11:15.364Z,4.90
2022-10-05T21:13:44.680Z,4.70
2022-10-05T21:16:13.327Z,2.40
2022-10-05T21:18:42.462Z,1.90
2022-10-05T21:21:11.995Z,2.53
2022-10-05T21:23:39.857Z,2.53
2022-10-05T21:26:08.231Z,3.63
2022-10-05T21:28:36.319Z,3.83
2022-10-05T21:31:04.288Z,1.73
2022-10-05T21:33:32.399Z,1.73
2022-10-05T21:36:00.276Z,2.97
2022-10-05T21:38:29.954Z,3.13
2022-10-05T21:40:58.094Z,2.03
2022-10-05T21:43:26.708Z,2.80
2022-10-05T21:45:56.246Z,2.83
2022-10-05T21:48:26.671Z,2.63
2022-10-05T21:50:55.113Z,3.00
2022-10-05T21:53:28.324Z,3.33
2022-10-05T21:56:02.709Z,3.70
2022-10-05T21:58:31.706Z,3.60
2022-10-05T22:00:59.721Z,4.67
2022-10-05T22:03:27.702Z,2.57
2022-10-05T22:05:55.720Z,3.73
2022-10-05T22:08:27.856Z,2.60
2022-10-05T22:10:58.022Z,2.47
2022-10-05T22:13:26.995Z,2.90
2022-10-05T22:15:56.409Z,2.93
2022-10-05T22:18:26.651Z,4.87
2022-10-05T22:20:54.883Z,3.83
2022-10-05T22:23:22.713Z,3.17
2022-10-05T22:25:50.639Z,2.37
2022-10-05T22:28:19.849Z,3.10
2022-10-05T22:30:48.020Z,2.23
2022-10-05T22:33:15.803Z,2.37
2022-10-05T22:35:43.878Z,2.07
2022-10-05T22:38:11.727Z,5.80
2022-10-05T22:40:39.552Z,1.53
2022-10-05T22:43:07.539Z,2.40
2022-10-05T22:45:36.806Z,2.27
2022-10-05T22:48:04.857Z,2.17
2022-10-05T22:50:32.966Z,3.47
2022-10-05T22:53:00.867Z,4.17
2022-10-05T22:55:29.485Z,3.43
2022-10-05T22:57:57.400Z,4.40
2022-10-05T23:00:40.535Z,3.03
2022-10-05T23:03:16.890Z,4.07
2022-10-05T23:05:44.767Z,3.27
2022-10-05T23:08:12.604Z,4.60
2022-10-05T23:10:40.411Z,2.93
2022-10-05T23:13:08.657Z,2.43
2022-10-05T23:15:36.564Z,5.07
2022-10-05T23:18:04.644Z,3.43
2022-10-05T23:20:33.871Z,4.10
2022-10-05T23:23:01.681Z,4.50
2022-10-05T23:25:29.755Z,3.10
2022-10-05T23:27:57.653Z,4.03
2022-10-05T23:30:25.631Z,6.73
2022-10-05T23:32:53.490Z,3.60
2022-10-05T23:35:21.341Z,4.83
2022-10-05T23:37:50.847Z,4.33
2022-10-05T23:40:18.839Z,2.50
2022-10-05T23:42:46.801Z,5.33
2022-10-05T23:45:14.816Z,4.03
2022-10-05T23:47:42.626Z,8.67
2022-10-05T23:50:10.907Z,5.40
2022-10-05T23:52:39.007Z,5.13
2022-10-05T23:55:08.930Z,6.73
2022-10-05T23:57:38.204Z,8.03
